createdAt,value
2017-11-10T00:00:11.025Z,29.37
2017-11-10T00:02:38.636Z,26.15
2017-11-10T00:05:06.197Z,24.48
2017-11-10T00:07:33.757Z,25.00
2017-11-10T00:10:02.188Z,26.20
2017-11-10T00:12:29.765Z,22.52
2017-11-10T00:14:58.112Z,23.08
2017-11-10T00:17:25.720Z,23.00
2017-11-10T00:19:54.047Z,23.35
2017-11-10T00:22:21.619Z,21.70
2017-11-10T00:24:49.221Z,21.27
2017-11-10T00:27:17.560Z,22.70
2017-11-10T00:29:45.121Z,23.73
2017-11-10T00:32:12.703Z,23.58
2017-11-10T00:34:40.273Z,23.48
2017-11-10T00:37:08.631Z,23.30
2017-11-10T00:39:36.221Z,23.73
2017-11-10T00:42:04.564Z,23.33
2017-11-10T00:44:32.160Z,25.35
2017-11-10T00:46:59.732Z,21.50
2017-11-10T00:49:28.103Z,23.48
2017-11-10T00:51:55.662Z,22.25
2017-11-10T00:54:23.281Z,23.00
2017-11-10T00:56:50.870Z,23.58
2017-11-10T00:59:18.436Z,22.40
2017-11-10T01:01:46.027Z,19.27
2017-11-10T01:04:14.379Z,20.77
2017-11-10T01:06:41.957Z,19.25
2017-11-10T01:09:10.310Z,19.20
2017-11-10T01:11:37.896Z,17.08
2017-11-10T01:14:07.388Z,17.80
2017-11-10T01:16:34.975Z,17.92
2017-11-10T01:19:03.305Z,17.25
2017-11-10T01:21:30.882Z,17.62
2017-11-10T01:23:58.457Z,17.45
2017-11-10T01:26:27.892Z,16.48
2017-11-10T01:28:56.253Z,18.10
2017-11-10T01:31:23.831Z,23.00
2017-11-10T01:33:52.178Z,26.10
2017-11-10T01:36:19.762Z,27.45
2017-11-10T01:38:47.488Z,26.58
2017-11-10T01:41:15.849Z,25.45
2017-11-10T01:43:43.412Z,27.37
2017-11-10T01:46:10.988Z,28.60
2017-11-10T01:48:43.397Z,25.20
2017-11-10T01:51:11.006Z,27.85
2017-11-10T01:53:38.600Z,31.67
2017-11-10T01:56:06.984Z,27.80
2017-11-10T01:58:34.558Z,28.90
2017-11-10T02:01:02.166Z,29.23
2017-11-10T02:03:29.783Z,30.00
2017-11-10T02:05:57.346Z,28.67
2017-11-10T02:08:24.926Z,27.92
2017-11-10T02:10:52.502Z,28.40
2017-11-10T02:13:20.866Z,30.55
2017-11-10T02:15:48.449Z,31.60
2017-11-10T02:18:16.816Z,29.85
2017-11-10T02:20:45.178Z,30.30
2017-11-10T02:23:12.786Z,30.30
2017-11-10T02:25:40.387Z,30.98
2017-11-10T02:28:07.969Z,32.15
2017-11-10T02:30:35.580Z,31.83
2017-11-10T02:33:03.164Z,30.83
2017-11-10T02:35:30.760Z,27.60
2017-11-10T02:37:58.349Z,29.42
2017-11-10T02:40:26.674Z,32.10
2017-11-10T02:42:54.270Z,28.92
2017-11-10T02:45:21.865Z,28.33
2017-11-10T02:47:49.454Z,27.33
2017-11-10T02:50:17.052Z,25.75
2017-11-10T02:52:44.637Z,26.98
2017-11-10T02:55:13.011Z,26.60
2017-11-10T02:57:41.347Z,28.12
2017-11-10T03:00:08.917Z,26.73
2017-11-10T03:02:36.529Z,26.30
2017-11-10T03:05:04.126Z,24.67
2017-11-10T03:07:31.727Z,24.75
2017-11-10T03:09:59.325Z,25.55
2017-11-10T03:12:26.934Z,24.00
2017-11-10T03:14:54.534Z,24.30
2017-11-10T03:17:22.140Z,25.65
2017-11-10T03:19:49.735Z,26.67
2017-11-10T03:22:17.306Z,25.83
2017-11-10T03:24:44.892Z,24.10
2017-11-10T03:27:12.505Z,24.73
2017-11-10T03:29:40.078Z,25.58
2017-11-10T03:32:07.697Z,27.90
2017-11-10T03:34:35.273Z,25.98
2017-11-10T03:37:02.835Z,27.80
2017-11-10T03:39:30.453Z,25.30
2017-11-10T03:41:58.798Z,26.75
2017-11-10T03:44:26.393Z,28.15
2017-11-10T03:46:54.720Z,27.13
2017-11-10T03:49:22.313Z,27.55
2017-11-10T03:51:49.887Z,30.98
2017-11-10T03:54:18.241Z,29.02
2017-11-10T03:56:45.840Z,34.45
2017-11-10T03:59:14.222Z,29.25
2017-11-10T04:01:42.571Z,32.08
2017-11-10T04:04:10.140Z,32.00
2017-11-10T04:06:37.762Z,33.25
2017-11-10T04:09:05.355Z,32.50
2017-11-10T04:11:32.963Z,32.70
2017-11-10T04:14:01.325Z,36.28
2017-11-10T04:16:28.913Z,35.50
2017-11-10T04:18:56.519Z,31.87
2017-11-10T04:21:24.104Z,33.05
2017-11-10T04:23:51.726Z,34.42
2017-11-10T04:26:19.314Z,31.37
2017-11-10T04:28:46.888Z,32.35
2017-11-10T04:31:14.471Z,32.25
2017-11-10T04:33:42.811Z,31.25
2017-11-10T04:36:11.174Z,31.70
2017-11-10T04:38:38.734Z,33.33
2017-11-10T04:41:06.313Z,33.13
2017-11-10T04:43:33.925Z,32.80
2017-11-10T04:46:02.269Z,31.12
2017-11-10T04:48:29.854Z,34.13
2017-11-10T04:50:57.427Z,32.70
2017-11-10T04:53:25.754Z,34.15
2017-11-10T04:55:53.349Z,36.00
2017-11-10T04:58:20.961Z,31.83
2017-11-10T05:00:48.561Z,32.92
2017-11-10T05:03:16.149Z,36.13
2017-11-10T05:05:44.483Z,34.33
2017-11-10T05:08:12.075Z,35.10
2017-11-10T05:10:39.674Z,33.55
2017-11-10T05:13:07.287Z,33.20
2017-11-10T05:15:34.864Z,33.35
2017-11-10T05:18:03.177Z,33.78
2017-11-10T05:20:31.541Z,35.72
2017-11-10T05:22:59.925Z,32.83
2017-11-10T05:25:28.470Z,32.15
2017-11-10T05:27:56.087Z,31.45
2017-11-10T05:30:24.425Z,31.02
2017-11-10T05:32:52.010Z,30.75
2017-11-10T05:35:20.378Z,31.23
2017-11-10T05:37:47.999Z,32.55
2017-11-10T05:40:15.581Z,31.37
2017-11-10T05:42:43.171Z,31.65
2017-11-10T05:45:10.789Z,31.50
2017-11-10T05:47:38.376Z,33.33
2017-11-10T05:50:05.991Z,30.77
2017-11-10T05:52:33.584Z,32.90
2017-11-10T05:55:01.205Z,32.25
2017-11-10T05:57:29.552Z,28.50
2017-11-10T05:59:57.127Z,29.50
2017-11-10T06:02:24.739Z,29.20
2017-11-10T06:04:52.348Z,29.77
2017-11-10T06:07:19.970Z,29.67
2017-11-10T06:09:47.533Z,29.35
2017-11-10T06:12:15.132Z,28.12
2017-11-10T06:14:42.713Z,30.60
2017-11-10T06:17:11.080Z,29.80
2017-11-10T06:19:38.707Z,30.23
2017-11-10T06:22:06.302Z,31.45
2017-11-10T06:24:33.912Z,30.02
2017-11-10T06:27:01.492Z,29.67
2017-11-10T06:29:29.086Z,30.17
2017-11-10T06:31:56.700Z,30.85
2017-11-10T06:34:24.271Z,31.00
2017-11-10T06:36:51.851Z,32.05
2017-11-10T06:39:19.410Z,29.00
2017-11-10T06:41:47.006Z,31.17
2017-11-10T06:44:14.575Z,29.98
2017-11-10T06:46:42.929Z,27.45
2017-11-10T06:49:10.633Z,27.15
2017-11-10T06:51:39.162Z,27.67
2017-11-10T06:54:06.924Z,27.25
2017-11-10T06:56:34.623Z,28.38
2017-11-10T06:59:02.351Z,28.05
2017-11-10T07:01:30.052Z,29.50
2017-11-10T07:03:57.780Z,28.67
2017-11-10T07:06:25.559Z,30.17
2017-11-10T07:08:53.307Z,29.27
2017-11-10T07:11:21.032Z,29.50
2017-11-10T07:13:48.833Z,28.67
2017-11-10T07:16:16.438Z,29.05
2017-11-10T07:18:44.091Z,29.83
2017-11-10T07:21:11.686Z,29.15
2017-11-10T07:23:39.306Z,30.05
2017-11-10T07:26:06.890Z,28.73
2017-11-10T07:28:34.473Z,30.92
2017-11-10T07:31:02.833Z,26.73
2017-11-10T07:33:30.395Z,31.30
2017-11-10T07:35:58.018Z,29.60
2017-11-10T07:38:25.652Z,31.15
2017-11-10T07:40:53.291Z,30.00
2017-11-10T07:43:20.908Z,28.90
2017-11-10T07:45:48.487Z,28.48
2017-11-10T07:48:16.075Z,27.92
2017-11-10T07:50:43.652Z,25.80
2017-11-10T07:53:11.259Z,24.55
2017-11-10T07:55:38.845Z,25.05
2017-11-10T07:58:06.452Z,21.92
2017-11-10T08:00:34.797Z,25.50
2017-11-10T08:03:02.408Z,22.92
2017-11-10T08:05:31.767Z,22.50
2017-11-10T08:07:59.390Z,23.73
2017-11-10T08:10:27.033Z,22.87
2017-11-10T08:12:55.393Z,22.75
2017-11-10T08:15:23.030Z,21.62
2017-11-10T08:17:50.608Z,21.42
2017-11-10T08:20:18.193Z,23.27
2017-11-10T08:22:46.559Z,20.88
2017-11-10T08:25:14.150Z,21.98
2017-11-10T08:27:42.530Z,20.92
2017-11-10T08:30:10.879Z,21.15
2017-11-10T08:32:38.479Z,22.83
2017-11-10T08:35:06.080Z,22.37
2017-11-10T08:37:33.663Z,20.85
2017-11-10T08:40:01.285Z,22.37
2017-11-10T08:42:28.860Z,21.05
2017-11-10T08:44:56.444Z,22.90
2017-11-10T08:47:24.059Z,24.83
2017-11-10T08:49:51.637Z,23.00
2017-11-10T08:52:19.244Z,22.00
2017-11-10T08:54:46.809Z,24.02
2017-11-10T08:57:14.385Z,23.55
2017-11-10T08:59:42.763Z,22.92
2017-11-10T09:02:11.093Z,22.85
2017-11-10T09:04:38.712Z,20.98
2017-11-10T09:07:07.041Z,22.35
2017-11-10T09:09:34.628Z,22.50
2017-11-10T09:12:10.026Z,23.48
2017-11-10T09:14:37.653Z,23.10
2017-11-10T09:17:05.266Z,23.00
2017-11-10T09:19:32.864Z,22.25
2017-11-10T09:22:00.458Z,21.80
2017-11-10T09:24:28.091Z,22.55
2017-11-10T09:26:55.676Z,21.75
2017-11-10T09:32:34.461Z,24.17
2017-11-10T09:35:09.154Z,22.02
2017-11-10T09:37:44.582Z,22.20
2017-11-10T09:40:30.444Z,21.15
2017-11-10T09:43:13.503Z,21.40
2017-11-10T09:49:02.060Z,23.05
2017-11-10T09:51:38.769Z,21.55
2017-11-10T09:57:45.282Z,19.48
2017-11-10T10:00:31.458Z,21.37
2017-11-10T10:06:33.396Z,20.55
2017-11-10T10:23:06.069Z,18.80
2017-11-10T10:25:34.002Z,17.98
2017-11-10T10:28:01.662Z,20.77
2017-11-10T10:30:29.816Z,18.42
2017-11-10T10:32:58.115Z,20.45
2017-11-10T10:35:26.465Z,19.30
2017-11-10T10:37:55.906Z,20.25
2017-11-10T10:40:24.283Z,18.45
2017-11-10T10:42:51.928Z,18.85
2017-11-10T10:45:19.633Z,16.67
2017-11-10T10:47:48.933Z,19.37
2017-11-10T10:50:17.365Z,17.92
2017-11-10T10:52:45.227Z,18.00
2017-11-10T10:55:13.588Z,17.80
2017-11-10T10:57:46.055Z,18.02
2017-11-10T11:00:14.189Z,18.67
2017-11-10T11:02:41.788Z,15.95
2017-11-10T11:05:10.138Z,18.58
2017-11-10T11:07:37.749Z,16.87
2017-11-10T11:10:05.411Z,17.90
2017-11-10T11:12:33.036Z,15.55
2017-11-10T11:15:00.621Z,15.40
2017-11-10T11:17:28.244Z,15.23
2017-11-10T11:19:55.835Z,15.45
2017-11-10T11:22:24.193Z,16.90
2017-11-10T11:24:51.841Z,17.75
2017-11-10T11:27:19.431Z,17.85
2017-11-10T11:29:47.050Z,17.60
2017-11-10T11:32:14.694Z,18.23
2017-11-10T11:34:42.295Z,20.10
2017-11-10T11:37:09.926Z,20.83
2017-11-10T11:39:37.499Z,16.65
2017-11-10T11:42:05.088Z,18.20
2017-11-10T11:44:32.675Z,19.37
2017-11-10T11:47:00.251Z,20.08
2017-11-10T11:49:28.646Z,18.92
2017-11-10T11:51:56.232Z,18.17
2017-11-10T11:54:23.821Z,17.23
2017-11-10T11:56:51.434Z,17.27
2017-11-10T11:59:19.020Z,18.10
2017-11-10T12:01:46.613Z,17.33
2017-11-10T12:04:14.211Z,17.90
2017-11-10T12:06:42.556Z,17.35
2017-11-10T12:09:10.182Z,16.33
2017-11-10T12:11:37.787Z,17.30
2017-11-10T12:14:05.404Z,15.50
2017-11-10T12:16:32.971Z,13.45
2017-11-10T12:19:00.547Z,13.43
2017-11-10T12:21:28.158Z,12.75
2017-11-10T12:23:56.503Z,12.25
2017-11-10T12:26:24.138Z,11.40
2017-11-10T12:28:51.724Z,10.93
2017-11-10T12:31:19.307Z,10.65
2017-11-10T12:33:46.914Z,10.30
2017-11-10T12:36:14.518Z,10.50
2017-11-10T12:38:42.132Z,11.12
2017-11-10T12:41:09.784Z,12.02
2017-11-10T12:43:38.113Z,11.05
2017-11-10T12:46:05.725Z,10.05
2017-11-10T12:48:34.134Z,11.35
2017-11-10T12:51:01.980Z,10.40
2017-11-10T12:53:29.588Z,9.57
2017-11-10T12:55:57.164Z,9.45
2017-11-10T12:58:24.758Z,9.60
2017-11-10T13:00:53.117Z,8.27
2017-11-10T13:03:20.778Z,7.97
2017-11-10T13:05:48.361Z,9.70
2017-11-10T13:08:15.953Z,9.15
2017-11-10T13:10:43.547Z,8.18
2017-11-10T13:13:11.138Z,8.25
2017-11-10T13:15:38.747Z,8.48
2017-11-10T13:18:06.308Z,8.18
2017-11-10T13:20:33.893Z,9.40
2017-11-10T13:23:01.493Z,8.27
2017-11-10T13:25:29.056Z,8.48
2017-11-10T13:27:56.657Z,8.75
2017-11-10T13:30:24.291Z,7.55
2017-11-10T13:32:52.638Z,7.93
2017-11-10T13:35:20.252Z,7.57
2017-11-10T13:37:47.863Z,7.20
2017-11-10T13:40:15.465Z,9.18
2017-11-10T13:42:43.805Z,8.35
2017-11-10T13:45:11.423Z,7.97
2017-11-10T13:47:39.024Z,9.02
2017-11-10T13:50:06.602Z,8.27
2017-11-10T13:52:34.207Z,10.40
2017-11-10T13:55:01.801Z,7.60
2017-11-10T13:57:29.438Z,6.05
2017-11-10T13:59:57.022Z,4.53
2017-11-10T14:02:24.597Z,3.80
2017-11-10T14:04:52.237Z,4.05
2017-11-10T14:07:19.797Z,4.55
2017-11-10T14:09:47.404Z,4.03
2017-11-10T14:12:14.985Z,4.68
2017-11-10T14:14:43.356Z,3.55
2017-11-10T14:17:10.973Z,4.05
2017-11-10T14:19:38.562Z,4.62
2017-11-10T14:22:06.168Z,3.45
2017-11-10T14:24:34.519Z,3.20
2017-11-10T14:27:02.108Z,2.58
2017-11-10T14:29:30.453Z,2.90
2017-11-10T14:31:58.053Z,2.72
2017-11-10T14:34:26.393Z,2.72
2017-11-10T14:36:53.990Z,3.70
2017-11-10T14:39:23.380Z,2.40
2017-11-10T14:41:50.984Z,3.53
2017-11-10T14:44:18.543Z,1.87
2017-11-10T14:46:46.140Z,2.83
2017-11-10T14:49:13.778Z,2.25
2017-11-10T14:51:41.404Z,1.90
2017-11-10T14:54:09.824Z,2.10
2017-11-10T14:56:37.391Z,1.90
2017-11-10T14:59:04.978Z,2.25
2017-11-10T15:01:32.582Z,1.92
2017-11-10T15:04:00.909Z,3.33
2017-11-10T15:06:28.580Z,2.12
2017-11-10T15:08:56.162Z,1.98
2017-11-10T15:11:23.734Z,1.87
2017-11-10T15:13:51.323Z,1.58
2017-11-10T15:16:18.894Z,2.47
2017-11-10T15:18:46.503Z,2.80
2017-11-10T15:21:14.095Z,2.05
2017-11-10T15:23:42.455Z,2.55
2017-11-10T15:26:10.050Z,2.33
2017-11-10T15:28:37.665Z,2.67
2017-11-10T15:31:05.246Z,2.40
2017-11-10T15:33:32.860Z,2.50
2017-11-10T15:36:00.438Z,2.12
2017-11-10T15:38:28.043Z,2.17
2017-11-10T15:40:55.626Z,2.03
2017-11-10T15:43:23.985Z,2.10
2017-11-10T15:45:51.596Z,2.35
2017-11-10T15:48:19.162Z,2.17
2017-11-10T15:50:46.769Z,1.95
2017-11-10T15:53:14.325Z,2.00
2017-11-10T15:55:41.895Z,2.40
2017-11-10T15:58:09.508Z,2.40
2017-11-10T16:00:37.096Z,2.53
2017-11-10T16:03:04.708Z,2.00
2017-11-10T16:05:33.029Z,2.30
2017-11-10T16:08:00.643Z,2.87
2017-11-10T16:10:28.990Z,3.58
2017-11-10T16:12:56.565Z,2.67
2017-11-10T16:15:24.176Z,2.97
2017-11-10T16:17:51.759Z,3.47
2017-11-10T16:20:19.354Z,2.42
2017-11-10T16:22:46.962Z,2.58
2017-11-10T16:25:14.544Z,2.80
2017-11-10T16:27:42.163Z,2.67
2017-11-10T16:30:10.502Z,1.95
2017-11-10T16:32:38.151Z,2.47
2017-11-10T16:35:05.714Z,2.70
2017-11-10T16:37:33.279Z,2.50
2017-11-10T16:40:00.862Z,2.55
2017-11-10T16:42:28.446Z,2.55
2017-11-10T16:44:56.834Z,2.28
2017-11-10T16:47:25.264Z,2.83
2017-11-10T16:49:52.826Z,3.40
2017-11-10T16:52:20.431Z,2.70
2017-11-10T16:54:48.765Z,3.00
2017-11-10T16:57:16.372Z,2.33
2017-11-10T16:59:44.720Z,2.47
2017-11-10T17:02:12.276Z,2.97
2017-11-10T17:04:39.877Z,3.00
2017-11-10T17:07:07.471Z,2.05
2017-11-10T17:09:35.088Z,2.22
2017-11-10T17:12:02.654Z,3.00
2017-11-10T17:14:30.250Z,3.25
2017-11-10T17:16:57.851Z,3.00
2017-11-10T17:19:25.434Z,2.45
2017-11-10T17:21:53.052Z,3.92
2017-11-10T17:24:20.624Z,3.22
2017-11-10T17:26:48.202Z,2.55
2017-11-10T17:29:15.790Z,2.47
2017-11-10T17:31:43.403Z,2.85
2017-11-10T17:34:11.003Z,3.47
2017-11-10T17:36:38.593Z,3.47
2017-11-10T17:39:06.936Z,3.90
2017-11-10T17:41:34.516Z,2.42
2017-11-10T17:44:02.122Z,2.97
2017-11-10T17:46:29.714Z,3.08
2017-11-10T17:48:57.313Z,2.67
2017-11-10T17:51:24.877Z,1.90
2017-11-10T17:53:52.476Z,2.58
2017-11-10T17:56:20.052Z,2.35
2017-11-10T17:58:47.657Z,2.95
2017-11-10T18:01:15.225Z,3.25
2017-11-10T18:03:42.807Z,3.50
2017-11-10T18:06:11.188Z,3.03
2017-11-10T18:08:39.537Z,3.72
2017-11-10T18:11:07.124Z,3.12
2017-11-10T18:13:35.453Z,2.92
2017-11-10T18:16:03.026Z,2.92
2017-11-10T18:18:30.632Z,3.33
2017-11-10T18:20:58.987Z,3.80
2017-11-10T18:23:26.595Z,3.60
2017-11-10T18:25:54.161Z,3.40
2017-11-10T18:28:21.740Z,3.33
2017-11-10T18:30:49.346Z,3.17
2017-11-10T18:33:16.947Z,2.45
2017-11-10T18:35:44.546Z,3.92
2017-11-10T18:38:12.131Z,3.50
2017-11-10T18:40:39.752Z,3.50
2017-11-10T18:43:07.320Z,2.85
2017-11-10T18:45:34.918Z,4.85
2017-11-10T18:48:02.543Z,2.95
2017-11-10T18:50:30.122Z,2.83
2017-11-10T18:53:03.365Z,3.00
2017-11-10T18:55:32.591Z,2.85
2017-11-10T18:58:00.146Z,2.72
2017-11-10T19:00:27.767Z,4.00
2017-11-10T19:02:55.365Z,2.90
2017-11-10T19:05:22.994Z,3.85
2017-11-10T19:07:50.580Z,2.45
2017-11-10T19:10:18.920Z,3.10
2017-11-10T19:12:46.592Z,3.85
2017-11-10T19:15:14.163Z,3.40
2017-11-10T19:17:41.769Z,3.65
2017-11-10T19:20:09.370Z,2.80
2017-11-10T19:22:36.948Z,3.72
2017-11-10T19:25:04.533Z,2.20
2017-11-10T19:27:32.878Z,2.83
2017-11-10T19:30:00.463Z,3.22
2017-11-10T19:32:28.054Z,3.45
2017-11-10T19:34:55.621Z,2.47
2017-11-10T19:37:23.244Z,3.17
2017-11-10T19:40:08.672Z,2.00
2017-11-10T19:42:36.279Z,3.22
2017-11-10T19:45:03.885Z,2.85
2017-11-10T19:47:31.483Z,2.58
2017-11-10T19:49:59.072Z,2.60
2017-11-10T19:52:26.638Z,2.62
2017-11-10T19:54:54.267Z,3.35
2017-11-10T19:57:21.843Z,3.08
2017-11-10T19:59:49.425Z,3.40
2017-11-10T20:02:17.139Z,4.62
2017-11-10T20:04:45.521Z,2.65
2017-11-10T20:07:13.174Z,2.30
2017-11-10T20:09:40.768Z,2.78
2017-11-10T20:12:08.401Z,3.35
2017-11-10T20:14:36.014Z,3.03
2017-11-10T20:17:03.583Z,3.00
2017-11-10T20:19:31.182Z,2.70
2017-11-10T20:21:58.790Z,2.92
2017-11-10T20:24:26.388Z,2.42
2017-11-10T20:26:54.728Z,2.65
2017-11-10T20:29:22.318Z,3.22
2017-11-10T20:31:50.688Z,2.60
2017-11-10T20:34:18.292Z,3.17
2017-11-10T20:36:45.917Z,2.65
2017-11-10T20:39:13.497Z,2.42
2017-11-10T20:41:41.855Z,3.15
2017-11-10T20:46:43.499Z,2.20
2017-11-10T20:49:11.218Z,2.45
2017-11-10T20:51:38.808Z,2.85
2017-11-10T20:54:06.402Z,3.00
2017-11-10T20:56:34.111Z,2.22
2017-11-10T20:59:01.780Z,4.18
2017-11-10T21:01:30.177Z,2.78
2017-11-10T21:03:57.787Z,2.45
2017-11-10T21:06:25.398Z,2.90
2017-11-10T21:08:53.011Z,2.95
2017-11-10T21:11:20.580Z,2.85
2017-11-10T21:13:48.213Z,2.87
2017-11-10T21:16:15.796Z,3.25
2017-11-10T21:18:43.381Z,3.53
2017-11-10T21:21:11.757Z,2.80
2017-11-10T21:23:39.329Z,2.58
2017-11-10T21:26:06.934Z,3.22
2017-11-10T21:28:34.556Z,2.22
2017-11-10T21:31:02.177Z,3.08
2017-11-10T21:33:29.773Z,2.67
2017-11-10T21:35:57.336Z,2.40
2017-11-10T21:38:24.943Z,2.60
2017-11-10T21:40:52.548Z,2.40
2017-11-10T21:43:20.118Z,2.10
2017-11-10T21:45:47.721Z,2.30
2017-11-10T21:48:15.355Z,3.25
2017-11-10T21:50:42.962Z,2.20
2017-11-10T21:53:10.550Z,3.17
2017-11-10T21:55:38.166Z,2.85
2017-11-10T21:58:05.759Z,3.22
2017-11-10T22:00:33.356Z,3.33
2017-11-10T22:03:00.965Z,2.62
2017-11-10T22:05:28.572Z,4.30
2017-11-10T22:07:56.185Z,3.60
2017-11-10T22:10:23.787Z,4.60
2017-11-10T22:12:51.393Z,3.72
2017-11-10T22:15:19.773Z,2.90
2017-11-10T22:17:48.132Z,3.15
2017-11-10T22:20:15.775Z,3.35
2017-11-10T22:22:43.356Z,3.65
2017-11-10T22:25:10.925Z,3.37
2017-11-10T22:27:38.501Z,3.78
2017-11-10T22:30:06.833Z,3.40
2017-11-10T22:32:34.435Z,3.67
2017-11-10T22:35:02.778Z,3.80
2017-11-10T22:37:30.339Z,3.33
2017-11-10T22:39:57.949Z,3.47
2017-11-10T22:42:26.292Z,2.90
2017-11-10T22:44:53.897Z,3.60
2017-11-10T22:47:22.255Z,3.85
2017-11-10T22:49:49.846Z,2.95
2017-11-10T22:52:18.211Z,2.75
2017-11-10T22:54:45.777Z,3.12
2017-11-10T22:57:14.127Z,3.22
2017-11-10T22:59:41.674Z,2.72
2017-11-10T23:02:09.337Z,1.90
2017-11-10T23:04:36.900Z,2.10
2017-11-10T23:07:05.290Z,2.60
2017-11-10T23:09:32.865Z,1.87
2017-11-10T23:12:00.492Z,2.30
2017-11-10T23:14:28.068Z,2.45
2017-11-10T23:16:55.662Z,2.53
2017-11-10T23:19:23.274Z,2.90
2017-11-10T23:21:50.834Z,2.92
2017-11-10T23:24:18.426Z,2.90
2017-11-10T23:26:46.777Z,3.08
2017-11-10T23:29:14.337Z,2.50
2017-11-10T23:31:41.936Z,2.30
2017-11-10T23:34:09.524Z,2.90
2017-11-10T23:36:37.889Z,2.87
2017-11-10T23:39:05.491Z,2.10
2017-11-10T23:41:33.071Z,2.37
2017-11-10T23:44:00.666Z,2.92
2017-11-10T23:46:28.994Z,2.50
2017-11-10T23:48:57.349Z,2.95
2017-11-10T23:51:24.920Z,2.12
2017-11-10T23:53:53.280Z,2.40
2017-11-10T23:56:20.851Z,2.42
2017-11-10T23:58:48.471Z,2.85
